sensor_id;sensor_type;location;lat;lon;timestamp;temperature;humidity
7576;DHT22;3829;50.798;4.358;2023-11-18T00:02:23;7.20;99.90
7576;DHT22;3829;50.798;4.358;2023-11-18T00:04:50;7.10;99.90
7576;DHT22;3829;50.798;4.358;2023-11-18T00:07:16;7.20;99.90
7576;DHT22;3829;50.798;4.358;2023-11-18T00:09:42;7.20;99.90
7576;DHT22;3829;50.798;4.358;2023-11-18T00:12:14;7.30;99.90
7576;DHT22;3829;50.798;4.358;2023-11-18T00:14:40;7.20;99.90
7576;DHT22;3829;50.798;4.358;2023-11-18T00:17:07;7.20;99.90
7576;DHT22;3829;50.798;4.358;2023-11-18T00:19:33;7.20;99.90
7576;DHT22;3829;50.798;4.358;2023-11-18T00:21:59;7.20;99.90
7576;DHT22;3829;50.798;4.358;2023-11-18T00:24:25;7.10;99.90
7576;DHT22;3829;50.798;4.358;2023-11-18T00:26:51;7.10;99.90
7576;DHT22;3829;50.798;4.358;2023-11-18T00:29:16;7.10;99.90
7576;DHT22;3829;50.798;4.358;2023-11-18T00:31:42;7.00;99.90
7576;DHT22;3829;50.798;4.358;2023-11-18T00:34:07;7.10;99.90
7576;DHT22;3829;50.798;4.358;2023-11-18T00:36:33;7.10;99.90
7576;DHT22;3829;50.798;4.358;2023-11-18T00:38:59;7.20;99.90
7576;DHT22;3829;50.798;4.358;2023-11-18T00:41:24;7.10;99.90
7576;DHT22;3829;50.798;4.358;2023-11-18T00:43:50;7.10;99.90
7576;DHT22;3829;50.798;4.358;2023-11-18T00:46:16;7.20;99.90
7576;DHT22;3829;50.798;4.358;2023-11-18T00:48:42;7.00;99.90
7576;DHT22;3829;50.798;4.358;2023-11-18T00:51:07;7.10;99.90
7576;DHT22;3829;50.798;4.358;2023-11-18T00:53:33;7.30;99.90
7576;DHT22;3829;50.798;4.358;2023-11-18T00:55:59;7.20;99.90
7576;DHT22;3829;50.798;4.358;2023-11-18T00:58:24;7.10;99.90
7576;DHT22;3829;50.798;4.358;2023-11-18T01:00:50;7.00;99.90
7576;DHT22;3829;50.798;4.358;2023-11-18T01:03:16;7.00;99.90
7576;DHT22;3829;50.798;4.358;2023-11-18T01:05:41;7.00;99.90
7576;DHT22;3829;50.798;4.358;2023-11-18T01:08:07;7.00;99.90
7576;DHT22;3829;50.798;4.358;2023-11-18T01:10:34;7.00;99.90
7576;DHT22;3829;50.798;4.358;2023-11-18T01:13:03;7.10;99.90
7576;DHT22;3829;50.798;4.358;2023-11-18T01:15:29;7.00;99.90
7576;DHT22;3829;50.798;4.358;2023-11-18T01:17:57;7.20;99.90
7576;DHT22;3829;50.798;4.358;2023-11-18T01:20:23;7.10;99.90
7576;DHT22;3829;50.798;4.358;2023-11-18T01:22:49;7.10;99.90
7576;DHT22;3829;50.798;4.358;2023-11-18T01:25:15;7.10;99.90
7576;DHT22;3829;50.798;4.358;2023-11-18T01:27:44;7.20;99.90
7576;DHT22;3829;50.798;4.358;2023-11-18T01:30:13;7.10;99.90
7576;DHT22;3829;50.798;4.358;2023-11-18T01:32:39;7.20;99.90
7576;DHT22;3829;50.798;4.358;2023-11-18T01:35:05;7.10;99.90
7576;DHT22;3829;50.798;4.358;2023-11-18T01:37:33;7.20;99.90
7576;DHT22;3829;50.798;4.358;2023-11-18T01:39:59;7.20;99.90
7576;DHT22;3829;50.798;4.358;2023-11-18T01:42:24;7.20;99.90
7576;DHT22;3829;50.798;4.358;2023-11-18T01:44:50;7.30;99.90
7576;DHT22;3829;50.798;4.358;2023-11-18T01:47:16;7.30;99.90
7576;DHT22;3829;50.798;4.358;2023-11-18T01:49:42;7.30;99.90
7576;DHT22;3829;50.798;4.358;2023-11-18T01:52:10;7.20;99.90
7576;DHT22;3829;50.798;4.358;2023-11-18T01:54:37;7.20;99.90
7576;DHT22;3829;50.798;4.358;2023-11-18T01:57:03;7.10;99.90
7576;DHT22;3829;50.798;4.358;2023-11-18T01:59:33;7.30;99.90
7576;DHT22;3829;50.798;4.358;2023-11-18T02:01:59;7.40;99.90
7576;DHT22;3829;50.798;4.358;2023-11-18T02:04:25;7.30;99.90
7576;DHT22;3829;50.798;4.358;2023-11-18T02:06:55;7.30;99.90
7576;DHT22;3829;50.798;4.358;2023-11-18T02:09:22;7.30;99.90
7576;DHT22;3829;50.798;4.358;2023-11-18T02:14:46;7.30;99.90
7576;DHT22;3829;50.798;4.358;2023-11-18T02:17:14;7.30;99.90
7576;DHT22;3829;50.798;4.358;2023-11-18T02:19:41;7.30;99.90
7576;DHT22;3829;50.798;4.358;2023-11-18T02:22:08;7.40;99.90
7576;DHT22;3829;50.798;4.358;2023-11-18T02:24:35;7.30;99.90
7576;DHT22;3829;50.798;4.358;2023-11-18T02:27:03;7.40;99.90
7576;DHT22;3829;50.798;4.358;2023-11-18T02:29:34;7.40;99.90
7576;DHT22;3829;50.798;4.358;2023-11-18T02:32:23;7.40;99.90
7576;DHT22;3829;50.798;4.358;2023-11-18T02:35:06;7.40;99.90
7576;DHT22;3829;50.798;4.358;2023-11-18T02:37:39;7.40;99.90
7576;DHT22;3829;50.798;4.358;2023-11-18T02:40:06;7.50;99.90
7576;DHT22;3829;50.798;4.358;2023-11-18T02:42:37;7.50;99.90
7576;DHT22;3829;50.798;4.358;2023-11-18T02:45:05;7.50;99.90
7576;DHT22;3829;50.798;4.358;2023-11-18T02:47:32;7.40;99.90
7576;DHT22;3829;50.798;4.358;2023-11-18T02:49:58;7.30;99.90
7576;DHT22;3829;50.798;4.358;2023-11-18T02:52:31;7.40;99.90
7576;DHT22;3829;50.798;4.358;2023-11-18T02:54:56;7.30;99.90
7576;DHT22;3829;50.798;4.358;2023-11-18T02:57:22;7.40;99.90
7576;DHT22;3829;50.798;4.358;2023-11-18T02:59:47;7.40;99.90
7576;DHT22;3829;50.798;4.358;2023-11-18T03:02:13;7.30;99.90
7576;DHT22;3829;50.798;4.358;2023-11-18T03:04:40;7.40;99.90
7576;DHT22;3829;50.798;4.358;2023-11-18T03:07:10;7.20;99.90
7576;DHT22;3829;50.798;4.358;2023-11-18T03:09:36;7.30;99.90
7576;DHT22;3829;50.798;4.358;2023-11-18T03:12:06;7.30;99.90
7576;DHT22;3829;50.798;4.358;2023-11-18T03:14:33;7.30;99.90
7576;DHT22;3829;50.798;4.358;2023-11-18T03:17:01;7.30;99.90
7576;DHT22;3829;50.798;4.358;2023-11-18T03:19:26;7.30;99.90
7576;DHT22;3829;50.798;4.358;2023-11-18T03:21:52;7.40;99.90
7576;DHT22;3829;50.798;4.358;2023-11-18T03:24:18;7.30;99.90
7576;DHT22;3829;50.798;4.358;2023-11-18T03:26:44;7.40;99.90
7576;DHT22;3829;50.798;4.358;2023-11-18T03:29:10;7.40;99.90
7576;DHT22;3829;50.798;4.358;2023-11-18T03:31:38;7.50;99.90
7576;DHT22;3829;50.798;4.358;2023-11-18T03:34:04;7.50;99.90
7576;DHT22;3829;50.798;4.358;2023-11-18T03:36:29;7.50;99.90
7576;DHT22;3829;50.798;4.358;2023-11-18T03:38:55;7.60;99.90
7576;DHT22;3829;50.798;4.358;2023-11-18T03:41:21;7.50;99.90
7576;DHT22;3829;50.798;4.358;2023-11-18T03:43:49;7.60;99.90
7576;DHT22;3829;50.798;4.358;2023-11-18T03:46:14;7.50;99.90
7576;DHT22;3829;50.798;4.358;2023-11-18T03:48:41;7.60;99.90
7576;DHT22;3829;50.798;4.358;2023-11-18T03:51:09;7.60;99.90
7576;DHT22;3829;50.798;4.358;2023-11-18T03:53:35;7.50;99.90
7576;DHT22;3829;50.798;4.358;2023-11-18T03:56:01;7.60;99.90
7576;DHT22;3829;50.798;4.358;2023-11-18T03:58:28;7.60;99.90
7576;DHT22;3829;50.798;4.358;2023-11-18T04:00:53;7.60;99.90
7576;DHT22;3829;50.798;4.358;2023-11-18T04:03:19;7.70;99.90
7576;DHT22;3829;50.798;4.358;2023-11-18T04:05:44;7.50;99.90
7576;DHT22;3829;50.798;4.358;2023-11-18T04:08:10;7.60;99.90
7576;DHT22;3829;50.798;4.358;2023-11-18T04:10:37;7.60;99.90
7576;DHT22;3829;50.798;4.358;2023-11-18T04:13:03;7.60;99.90
7576;DHT22;3829;50.798;4.358;2023-11-18T04:15:29;7.70;99.90
7576;DHT22;3829;50.798;4.358;2023-11-18T04:17:55;7.50;99.90
7576;DHT22;3829;50.798;4.358;2023-11-18T04:20:21;7.60;99.90
7576;DHT22;3829;50.798;4.358;2023-11-18T04:22:46;7.40;99.90
7576;DHT22;3829;50.798;4.358;2023-11-18T04:25:12;7.50;99.90
7576;DHT22;3829;50.798;4.358;2023-11-18T04:27:38;7.60;99.90
7576;DHT22;3829;50.798;4.358;2023-11-18T04:30:04;7.60;99.90
7576;DHT22;3829;50.798;4.358;2023-11-18T04:32:30;7.50;99.90
7576;DHT22;3829;50.798;4.358;2023-11-18T04:34:58;7.60;99.90
7576;DHT22;3829;50.798;4.358;2023-11-18T04:37:25;7.70;99.90
7576;DHT22;3829;50.798;4.358;2023-11-18T04:39:51;7.40;99.90
7576;DHT22;3829;50.798;4.358;2023-11-18T04:42:17;7.60;99.90
7576;DHT22;3829;50.798;4.358;2023-11-18T04:44:43;7.60;99.90
7576;DHT22;3829;50.798;4.358;2023-11-18T04:47:09;7.60;99.90
7576;DHT22;3829;50.798;4.358;2023-11-18T04:49:36;7.60;99.90
7576;DHT22;3829;50.798;4.358;2023-11-18T04:52:02;7.70;99.90
7576;DHT22;3829;50.798;4.358;2023-11-18T04:54:28;7.70;99.90
7576;DHT22;3829;50.798;4.358;2023-11-18T04:56:53;7.70;99.90
7576;DHT22;3829;50.798;4.358;2023-11-18T04:59:19;7.60;99.90
7576;DHT22;3829;50.798;4.358;2023-11-18T05:01:45;7.60;99.90
7576;DHT22;3829;50.798;4.358;2023-11-18T05:04:11;7.70;99.90
7576;DHT22;3829;50.798;4.358;2023-11-18T05:06:36;7.80;99.90
7576;DHT22;3829;50.798;4.358;2023-11-18T05:09:02;7.80;99.90
7576;DHT22;3829;50.798;4.358;2023-11-18T05:11:28;7.80;99.90
7576;DHT22;3829;50.798;4.358;2023-11-18T05:13:53;7.70;99.90
7576;DHT22;3829;50.798;4.358;2023-11-18T05:16:19;7.80;99.90
7576;DHT22;3829;50.798;4.358;2023-11-18T05:18:45;7.90;99.90
7576;DHT22;3829;50.798;4.358;2023-11-18T05:21:10;7.80;99.90
7576;DHT22;3829;50.798;4.358;2023-11-18T05:23:36;7.90;99.90
7576;DHT22;3829;50.798;4.358;2023-11-18T05:26:02;7.90;99.90
7576;DHT22;3829;50.798;4.358;2023-11-18T05:28:31;7.90;99.90
7576;DHT22;3829;50.798;4.358;2023-11-18T05:30:57;8.00;99.90
7576;DHT22;3829;50.798;4.358;2023-11-18T05:33:26;8.00;99.90
7576;DHT22;3829;50.798;4.358;2023-11-18T05:35:53;8.00;99.90
7576;DHT22;3829;50.798;4.358;2023-11-18T05:38:20;8.00;99.90
7576;DHT22;3829;50.798;4.358;2023-11-18T05:40:48;8.00;99.90
7576;DHT22;3829;50.798;4.358;2023-11-18T05:43:23;7.90;99.90
7576;DHT22;3829;50.798;4.358;2023-11-18T05:45:50;8.00;99.90
7576;DHT22;3829;50.798;4.358;2023-11-18T05:48:25;8.00;99.90
7576;DHT22;3829;50.798;4.358;2023-11-18T05:50:51;7.90;99.90
7576;DHT22;3829;50.798;4.358;2023-11-18T05:53:16;8.10;99.90
7576;DHT22;3829;50.798;4.358;2023-11-18T05:55:42;8.00;99.90
7576;DHT22;3829;50.798;4.358;2023-11-18T05:58:08;8.00;99.90
7576;DHT22;3829;50.798;4.358;2023-11-18T06:00:34;8.00;99.90
7576;DHT22;3829;50.798;4.358;2023-11-18T06:03:00;8.10;99.90
7576;DHT22;3829;50.798;4.358;2023-11-18T06:05:28;8.10;99.90
7576;DHT22;3829;50.798;4.358;2023-11-18T06:07:54;8.10;99.90
7576;DHT22;3829;50.798;4.358;2023-11-18T06:10:20;8.10;99.90
7576;DHT22;3829;50.798;4.358;2023-11-18T06:12:46;8.00;99.90
7576;DHT22;3829;50.798;4.358;2023-11-18T06:15:12;8.10;99.90
7576;DHT22;3829;50.798;4.358;2023-11-18T06:17:40;8.10;99.90
7576;DHT22;3829;50.798;4.358;2023-11-18T06:20:05;8.20;99.90
7576;DHT22;3829;50.798;4.358;2023-11-18T06:22:31;8.20;99.90
7576;DHT22;3829;50.798;4.358;2023-11-18T06:24:57;8.30;99.90
7576;DHT22;3829;50.798;4.358;2023-11-18T06:27:23;8.40;99.90
7576;DHT22;3829;50.798;4.358;2023-11-18T06:29:50;8.30;99.90
7576;DHT22;3829;50.798;4.358;2023-11-18T06:32:15;8.30;99.90
7576;DHT22;3829;50.798;4.358;2023-11-18T06:34:41;8.30;99.90
7576;DHT22;3829;50.798;4.358;2023-11-18T06:37:07;8.40;99.90
7576;DHT22;3829;50.798;4.358;2023-11-18T06:39:32;8.30;99.90
7576;DHT22;3829;50.798;4.358;2023-11-18T06:42:00;8.40;99.90
7576;DHT22;3829;50.798;4.358;2023-11-18T06:44:28;8.50;99.90
7576;DHT22;3829;50.798;4.358;2023-11-18T06:46:54;8.50;99.90
7576;DHT22;3829;50.798;4.358;2023-11-18T06:49:20;8.30;99.90
7576;DHT22;3829;50.798;4.358;2023-11-18T06:51:46;8.40;99.90
7576;DHT22;3829;50.798;4.358;2023-11-18T06:54:11;8.40;99.90
7576;DHT22;3829;50.798;4.358;2023-11-18T06:56:40;8.50;99.90
7576;DHT22;3829;50.798;4.358;2023-11-18T06:59:08;8.40;99.90
7576;DHT22;3829;50.798;4.358;2023-11-18T07:01:35;8.50;99.90
7576;DHT22;3829;50.798;4.358;2023-11-18T07:04:01;8.50;99.90
7576;DHT22;3829;50.798;4.358;2023-11-18T07:06:27;8.40;99.90
7576;DHT22;3829;50.798;4.358;2023-11-18T07:08:54;8.60;99.90
7576;DHT22;3829;50.798;4.358;2023-11-18T07:11:25;8.50;99.90
7576;DHT22;3829;50.798;4.358;2023-11-18T07:13:51;8.60;99.90
7576;DHT22;3829;50.798;4.358;2023-11-18T07:16:23;8.50;99.90
7576;DHT22;3829;50.798;4.358;2023-11-18T07:18:49;8.50;99.90
7576;DHT22;3829;50.798;4.358;2023-11-18T07:21:15;8.50;99.90
7576;DHT22;3829;50.798;4.358;2023-11-18T07:23:40;8.50;99.90
7576;DHT22;3829;50.798;4.358;2023-11-18T07:26:07;8.50;99.90
7576;DHT22;3829;50.798;4.358;2023-11-18T07:28:35;8.50;99.90
7576;DHT22;3829;50.798;4.358;2023-11-18T07:31:01;8.40;99.90
7576;DHT22;3829;50.798;4.358;2023-11-18T07:33:30;8.40;99.90
7576;DHT22;3829;50.798;4.358;2023-11-18T07:35:58;8.40;99.90
7576;DHT22;3829;50.798;4.358;2023-11-18T07:38:23;8.40;99.90
7576;DHT22;3829;50.798;4.358;2023-11-18T07:40:49;8.50;99.90
7576;DHT22;3829;50.798;4.358;2023-11-18T07:43:18;8.50;99.90
7576;DHT22;3829;50.798;4.358;2023-11-18T07:45:47;8.50;99.90
7576;DHT22;3829;50.798;4.358;2023-11-18T07:48:16;8.40;99.90
7576;DHT22;3829;50.798;4.358;2023-11-18T07:50:43;8.40;99.90
7576;DHT22;3829;50.798;4.358;2023-11-18T07:53:09;8.40;99.90
7576;DHT22;3829;50.798;4.358;2023-11-18T07:55:35;8.30;99.90
7576;DHT22;3829;50.798;4.358;2023-11-18T07:58:05;8.40;99.90
7576;DHT22;3829;50.798;4.358;2023-11-18T08:00:39;8.40;99.90
7576;DHT22;3829;50.798;4.358;2023-11-18T08:03:06;8.40;99.90
7576;DHT22;3829;50.798;4.358;2023-11-18T08:05:38;8.20;99.90
7576;DHT22;3829;50.798;4.358;2023-11-18T08:08:06;8.30;99.90
7576;DHT22;3829;50.798;4.358;2023-11-18T08:10:33;8.30;99.90
7576;DHT22;3829;50.798;4.358;2023-11-18T08:12:59;8.30;99.90
7576;DHT22;3829;50.798;4.358;2023-11-18T08:15:24;8.30;99.90
7576;DHT22;3829;50.798;4.358;2023-11-18T08:17:52;8.30;99.90
7576;DHT22;3829;50.798;4.358;2023-11-18T08:20:19;8.30;99.90
7576;DHT22;3829;50.798;4.358;2023-11-18T08:22:46;8.20;99.90
7576;DHT22;3829;50.798;4.358;2023-11-18T08:25:12;8.30;99.90
7576;DHT22;3829;50.798;4.358;2023-11-18T08:27:39;8.20;99.90
7576;DHT22;3829;50.798;4.358;2023-11-18T08:30:06;8.20;99.90
7576;DHT22;3829;50.798;4.358;2023-11-18T08:32:37;8.20;99.90
7576;DHT22;3829;50.798;4.358;2023-11-18T08:35:04;8.10;99.90
7576;DHT22;3829;50.798;4.358;2023-11-18T08:37:33;8.20;99.90
7576;DHT22;3829;50.798;4.358;2023-11-18T08:40:02;8.30;99.90
7576;DHT22;3829;50.798;4.358;2023-11-18T08:42:29;8.20;99.90
7576;DHT22;3829;50.798;4.358;2023-11-18T08:44:57;8.20;99.90
7576;DHT22;3829;50.798;4.358;2023-11-18T08:47:24;8.40;99.90
7576;DHT22;3829;50.798;4.358;2023-11-18T08:49:50;8.50;99.90
7576;DHT22;3829;50.798;4.358;2023-11-18T08:52:15;8.50;99.90
7576;DHT22;3829;50.798;4.358;2023-11-18T08:54:43;8.50;99.90
7576;DHT22;3829;50.798;4.358;2023-11-18T08:57:29;8.60;99.90
7576;DHT22;3829;50.798;4.358;2023-11-18T09:00:15;8.50;99.90
7576;DHT22;3829;50.798;4.358;2023-11-18T09:02:51;8.50;99.90
7576;DHT22;3829;50.798;4.358;2023-11-18T09:05:21;8.40;99.90
7576;DHT22;3829;50.798;4.358;2023-11-18T09:07:47;8.60;99.90
7576;DHT22;3829;50.798;4.358;2023-11-18T09:10:16;8.60;99.90
7576;DHT22;3829;50.798;4.358;2023-11-18T09:12:42;8.60;99.90
7576;DHT22;3829;50.798;4.358;2023-11-18T09:15:10;8.60;99.90
7576;DHT22;3829;50.798;4.358;2023-11-18T09:17:43;8.60;99.90
7576;DHT22;3829;50.798;4.358;2023-11-18T09:20:10;8.60;99.90
7576;DHT22;3829;50.798;4.358;2023-11-18T09:22:36;8.70;99.90
7576;DHT22;3829;50.798;4.358;2023-11-18T09:25:02;8.70;99.90
7576;DHT22;3829;50.798;4.358;2023-11-18T09:27:34;8.70;99.90
7576;DHT22;3829;50.798;4.358;2023-11-18T09:29:59;8.70;99.90
7576;DHT22;3829;50.798;4.358;2023-11-18T09:32:25;8.60;99.90
7576;DHT22;3829;50.798;4.358;2023-11-18T09:34:51;8.70;99.90
7576;DHT22;3829;50.798;4.358;2023-11-18T09:37:18;8.70;99.90
7576;DHT22;3829;50.798;4.358;2023-11-18T09:39:44;8.70;99.90
7576;DHT22;3829;50.798;4.358;2023-11-18T09:42:12;8.70;99.90
7576;DHT22;3829;50.798;4.358;2023-11-18T09:44:39;8.70;99.90
7576;DHT22;3829;50.798;4.358;2023-11-18T09:47:07;8.60;99.90
7576;DHT22;3829;50.798;4.358;2023-11-18T09:49:40;8.60;99.90
7576;DHT22;3829;50.798;4.358;2023-11-18T09:52:15;8.50;99.90
7576;DHT22;3829;50.798;4.358;2023-11-18T09:54:52;8.70;99.90
7576;DHT22;3829;50.798;4.358;2023-11-18T09:57:32;8.60;99.90
7576;DHT22;3829;50.798;4.358;2023-11-18T10:00:04;8.70;99.90
7576;DHT22;3829;50.798;4.358;2023-11-18T10:02:40;8.60;99.90
7576;DHT22;3829;50.798;4.358;2023-11-18T10:05:07;8.70;99.90
7576;DHT22;3829;50.798;4.358;2023-11-18T10:07:40;8.80;99.90
7576;DHT22;3829;50.798;4.358;2023-11-18T10:10:08;8.80;99.90
7576;DHT22;3829;50.798;4.358;2023-11-18T10:12:42;8.70;99.90
7576;DHT22;3829;50.798;4.358;2023-11-18T10:15:12;8.80;99.90
7576;DHT22;3829;50.798;4.358;2023-11-18T10:17:42;8.80;99.90
7576;DHT22;3829;50.798;4.358;2023-11-18T10:20:22;8.80;99.90
7576;DHT22;3829;50.798;4.358;2023-11-18T10:23:06;8.70;99.90
7576;DHT22;3829;50.798;4.358;2023-11-18T10:25:32;8.70;99.90
7576;DHT22;3829;50.798;4.358;2023-11-18T10:28:01;8.80;99.90
7576;DHT22;3829;50.798;4.358;2023-11-18T10:30:28;8.90;99.90
7576;DHT22;3829;50.798;4.358;2023-11-18T10:32:59;8.80;99.90
7576;DHT22;3829;50.798;4.358;2023-11-18T10:35:33;8.90;99.90
7576;DHT22;3829;50.798;4.358;2023-11-18T10:38:02;9.00;99.90
7576;DHT22;3829;50.798;4.358;2023-11-18T10:40:32;8.90;99.90
7576;DHT22;3829;50.798;4.358;2023-11-18T10:43:00;8.90;99.90
7576;DHT22;3829;50.798;4.358;2023-11-18T10:45:26;8.90;99.90
7576;DHT22;3829;50.798;4.358;2023-11-18T10:47:54;8.90;99.90
7576;DHT22;3829;50.798;4.358;2023-11-18T10:50:22;9.00;99.90
7576;DHT22;3829;50.798;4.358;2023-11-18T10:52:48;9.00;99.90
7576;DHT22;3829;50.798;4.358;2023-11-18T10:55:14;9.00;99.90
7576;DHT22;3829;50.798;4.358;2023-11-18T10:57:45;9.00;99.90
7576;DHT22;3829;50.798;4.358;2023-11-18T11:00:11;8.90;99.90
7576;DHT22;3829;50.798;4.358;2023-11-18T11:02:39;8.80;99.90
7576;DHT22;3829;50.798;4.358;2023-11-18T11:05:07;8.90;99.90
7576;DHT22;3829;50.798;4.358;2023-11-18T11:07:33;9.00;99.90
7576;DHT22;3829;50.798;4.358;2023-11-18T11:10:00;9.10;99.90
7576;DHT22;3829;50.798;4.358;2023-11-18T11:12:33;9.10;99.90
7576;DHT22;3829;50.798;4.358;2023-11-18T11:15:08;9.00;99.90
7576;DHT22;3829;50.798;4.358;2023-11-18T11:17:39;9.00;99.90
7576;DHT22;3829;50.798;4.358;2023-11-18T11:20:08;9.00;99.90
7576;DHT22;3829;50.798;4.358;2023-11-18T11:22:55;9.00;99.90
7576;DHT22;3829;50.798;4.358;2023-11-18T11:25:30;9.10;99.90
7576;DHT22;3829;50.798;4.358;2023-11-18T11:28:11;9.10;99.90
7576;DHT22;3829;50.798;4.358;2023-11-18T11:33:32;9.10;99.90
7576;DHT22;3829;50.798;4.358;2023-11-18T11:36:09;9.10;99.90
7576;DHT22;3829;50.798;4.358;2023-11-18T11:38:37;9.10;99.90
7576;DHT22;3829;50.798;4.358;2023-11-18T11:41:04;9.10;99.90
7576;DHT22;3829;50.798;4.358;2023-11-18T11:43:31;9.20;99.90
7576;DHT22;3829;50.798;4.358;2023-11-18T11:46:01;9.30;99.90
7576;DHT22;3829;50.798;4.358;2023-11-18T11:48:36;9.30;99.90
7576;DHT22;3829;50.798;4.358;2023-11-18T11:51:32;9.20;99.90
7576;DHT22;3829;50.798;4.358;2023-11-18T11:54:06;9.30;99.90
7576;DHT22;3829;50.798;4.358;2023-11-18T11:56:43;9.30;99.90
7576;DHT22;3829;50.798;4.358;2023-11-18T11:59:09;9.30;99.90
7576;DHT22;3829;50.798;4.358;2023-11-18T12:01:37;9.30;99.90
7576;DHT22;3829;50.798;4.358;2023-11-18T12:04:05;9.40;99.90
7576;DHT22;3829;50.798;4.358;2023-11-18T12:06:43;9.40;99.90
7576;DHT22;3829;50.798;4.358;2023-11-18T12:09:10;9.40;99.90
7576;DHT22;3829;50.798;4.358;2023-11-18T12:11:36;9.30;99.90
7576;DHT22;3829;50.798;4.358;2023-11-18T12:14:07;9.20;99.90
7576;DHT22;3829;50.798;4.358;2023-11-18T12:17:07;9.30;99.90
7576;DHT22;3829;50.798;4.358;2023-11-18T12:19:40;9.30;99.90
7576;DHT22;3829;50.798;4.358;2023-11-18T12:22:17;9.30;99.90
7576;DHT22;3829;50.798;4.358;2023-11-18T12:24:46;9.40;99.90
7576;DHT22;3829;50.798;4.358;2023-11-18T12:27:13;9.50;99.90
7576;DHT22;3829;50.798;4.358;2023-11-18T12:29:43;9.40;99.90
7576;DHT22;3829;50.798;4.358;2023-11-18T12:32:09;9.30;99.90
7576;DHT22;3829;50.798;4.358;2023-11-18T12:34:52;9.30;99.90
7576;DHT22;3829;50.798;4.358;2023-11-18T12:40:32;9.30;99.90
7576;DHT22;3829;50.798;4.358;2023-11-18T12:43:02;9.30;99.90
7576;DHT22;3829;50.798;4.358;2023-11-18T12:45:44;9.40;99.90
7576;DHT22;3829;50.798;4.358;2023-11-18T12:48:13;9.30;99.90
7576;DHT22;3829;50.798;4.358;2023-11-18T12:50:41;9.40;99.90
7576;DHT22;3829;50.798;4.358;2023-11-18T12:53:09;9.50;99.90
7576;DHT22;3829;50.798;4.358;2023-11-18T12:55:35;9.50;99.90
7576;DHT22;3829;50.798;4.358;2023-11-18T12:58:01;9.40;99.90
7576;DHT22;3829;50.798;4.358;2023-11-18T13:00:31;9.40;99.90
7576;DHT22;3829;50.798;4.358;2023-11-18T13:03:00;9.60;99.90
7576;DHT22;3829;50.798;4.358;2023-11-18T13:05:25;9.60;99.90
7576;DHT22;3829;50.798;4.358;2023-11-18T13:07:55;9.50;99.90
7576;DHT22;3829;50.798;4.358;2023-11-18T13:10:21;9.50;99.90
7576;DHT22;3829;50.798;4.358;2023-11-18T13:12:47;9.50;99.90
7576;DHT22;3829;50.798;4.358;2023-11-18T13:15:13;9.60;99.90
7576;DHT22;3829;50.798;4.358;2023-11-18T13:17:38;9.40;99.90
7576;DHT22;3829;50.798;4.358;2023-11-18T13:20:14;9.70;99.90
7576;DHT22;3829;50.798;4.358;2023-11-18T13:22:41;9.60;99.90
7576;DHT22;3829;50.798;4.358;2023-11-18T13:25:07;9.60;99.90
7576;DHT22;3829;50.798;4.358;2023-11-18T13:27:35;9.50;99.90
7576;DHT22;3829;50.798;4.358;2023-11-18T13:30:01;9.70;99.90
7576;DHT22;3829;50.798;4.358;2023-11-18T13:32:29;9.70;99.90
7576;DHT22;3829;50.798;4.358;2023-11-18T13:34:55;9.70;99.90
7576;DHT22;3829;50.798;4.358;2023-11-18T13:37:20;9.70;99.90
7576;DHT22;3829;50.798;4.358;2023-11-18T13:39:55;9.70;99.90
7576;DHT22;3829;50.798;4.358;2023-11-18T13:42:24;9.70;99.90
7576;DHT22;3829;50.798;4.358;2023-11-18T13:44:51;9.70;99.90
7576;DHT22;3829;50.798;4.358;2023-11-18T13:47:18;9.70;99.90
7576;DHT22;3829;50.798;4.358;2023-11-18T13:49:44;9.70;99.90
7576;DHT22;3829;50.798;4.358;2023-11-18T13:52:13;9.70;99.90
7576;DHT22;3829;50.798;4.358;2023-11-18T13:54:41;9.80;99.90
7576;DHT22;3829;50.798;4.358;2023-11-18T13:57:10;9.90;99.90
7576;DHT22;3829;50.798;4.358;2023-11-18T13:59:37;9.70;99.90
7576;DHT22;3829;50.798;4.358;2023-11-18T14:02:04;9.80;99.90
7576;DHT22;3829;50.798;4.358;2023-11-18T14:04:31;9.90;99.90
7576;DHT22;3829;50.798;4.358;2023-11-18T14:07:00;9.90;99.90
7576;DHT22;3829;50.798;4.358;2023-11-18T14:09:27;9.90;99.90
7576;DHT22;3829;50.798;4.358;2023-11-18T14:11:55;9.90;99.90
7576;DHT22;3829;50.798;4.358;2023-11-18T14:14:22;10.00;99.90
7576;DHT22;3829;50.798;4.358;2023-11-18T14:16:48;10.00;99.90
7576;DHT22;3829;50.798;4.358;2023-11-18T14:19:14;10.10;99.90
7576;DHT22;3829;50.798;4.358;2023-11-18T14:21:41;10.00;99.90
7576;DHT22;3829;50.798;4.358;2023-11-18T14:24:08;10.00;99.90
7576;DHT22;3829;50.798;4.358;2023-11-18T14:26:36;10.10;99.90
7576;DHT22;3829;50.798;4.358;2023-11-18T14:29:02;10.10;99.90
7576;DHT22;3829;50.798;4.358;2023-11-18T14:31:28;10.10;99.90
7576;DHT22;3829;50.798;4.358;2023-11-18T14:33:54;10.10;99.90
7576;DHT22;3829;50.798;4.358;2023-11-18T14:36:25;10.10;99.90
7576;DHT22;3829;50.798;4.358;2023-11-18T14:38:50;10.10;99.90
7576;DHT22;3829;50.798;4.358;2023-11-18T14:41:16;10.10;99.90
7576;DHT22;3829;50.798;4.358;2023-11-18T14:43:42;10.10;99.90
7576;DHT22;3829;50.798;4.358;2023-11-18T14:46:08;10.20;99.90
7576;DHT22;3829;50.798;4.358;2023-11-18T14:48:34;10.30;99.90
7576;DHT22;3829;50.798;4.358;2023-11-18T14:51:00;10.20;99.90
7576;DHT22;3829;50.798;4.358;2023-11-18T14:53:26;10.20;99.90
7576;DHT22;3829;50.798;4.358;2023-11-18T14:55:51;10.20;99.90
7576;DHT22;3829;50.798;4.358;2023-11-18T14:58:17;10.20;99.90
7576;DHT22;3829;50.798;4.358;2023-11-18T15:00:42;10.20;99.90
7576;DHT22;3829;50.798;4.358;2023-11-18T15:03:08;10.20;99.90
7576;DHT22;3829;50.798;4.358;2023-11-18T15:05:34;10.30;99.90
7576;DHT22;3829;50.798;4.358;2023-11-18T15:08:00;10.30;99.90
7576;DHT22;3829;50.798;4.358;2023-11-18T15:10:27;10.40;99.90
7576;DHT22;3829;50.798;4.358;2023-11-18T15:12:55;10.40;99.90
7576;DHT22;3829;50.798;4.358;2023-11-18T15:15:25;10.50;99.90
7576;DHT22;3829;50.798;4.358;2023-11-18T15:17:58;10.40;99.90
7576;DHT22;3829;50.798;4.358;2023-11-18T15:20:24;10.50;99.90
7576;DHT22;3829;50.798;4.358;2023-11-18T15:22:50;10.50;99.90
7576;DHT22;3829;50.798;4.358;2023-11-18T15:25:16;10.50;99.90
7576;DHT22;3829;50.798;4.358;2023-11-18T15:27:44;10.50;99.90
7576;DHT22;3829;50.798;4.358;2023-11-18T15:30:12;10.50;99.90
7576;DHT22;3829;50.798;4.358;2023-11-18T15:32:40;10.50;99.90
7576;DHT22;3829;50.798;4.358;2023-11-18T15:35:07;10.50;99.90
7576;DHT22;3829;50.798;4.358;2023-11-18T15:37:36;10.50;99.90
7576;DHT22;3829;50.798;4.358;2023-11-18T15:40:05;10.60;99.90
7576;DHT22;3829;50.798;4.358;2023-11-18T15:42:36;10.60;99.90
7576;DHT22;3829;50.798;4.358;2023-11-18T15:45:03;10.70;99.90
7576;DHT22;3829;50.798;4.358;2023-11-18T15:47:28;10.70;99.90
7576;DHT22;3829;50.798;4.358;2023-11-18T15:49:54;10.60;99.90
7576;DHT22;3829;50.798;4.358;2023-11-18T15:52:19;10.70;99.90
7576;DHT22;3829;50.798;4.358;2023-11-18T15:54:45;10.70;99.90
7576;DHT22;3829;50.798;4.358;2023-11-18T15:57:12;10.80;99.90
7576;DHT22;3829;50.798;4.358;2023-11-18T15:59:38;10.80;99.90
7576;DHT22;3829;50.798;4.358;2023-11-18T16:02:04;10.80;99.90
7576;DHT22;3829;50.798;4.358;2023-11-18T16:04:31;10.80;99.90
7576;DHT22;3829;50.798;4.358;2023-11-18T16:06:57;10.90;99.90
7576;DHT22;3829;50.798;4.358;2023-11-18T16:09:22;11.00;99.90
7576;DHT22;3829;50.798;4.358;2023-11-18T16:11:48;11.00;99.90
7576;DHT22;3829;50.798;4.358;2023-11-18T16:14:14;11.00;99.90
7576;DHT22;3829;50.798;4.358;2023-11-18T16:16:42;11.00;99.90
7576;DHT22;3829;50.798;4.358;2023-11-18T16:19:07;11.00;99.90
7576;DHT22;3829;50.798;4.358;2023-11-18T16:21:37;11.00;99.90
7576;DHT22;3829;50.798;4.358;2023-11-18T16:24:04;11.00;99.90
7576;DHT22;3829;50.798;4.358;2023-11-18T16:26:29;10.90;99.90
7576;DHT22;3829;50.798;4.358;2023-11-18T16:28:55;11.00;99.90